< < Back
Terminal Aerodrome Forecast


Current Version              Previous Versions:   1  2  3  4  5  6  7  8  9  

Terminal Aerodrome Forecast

396
FTUS44 KBMX 181700
TAFMGM
TAF
KMGM 181723Z 1818/1918 VRB04KT P6SM SCT250=



Latest METAR

852
SAUS80 KWBC 191000
MTRMGM
METAR KMGM 190953Z AUTO 03004KT 10SM CLR 21/19 A2996 RMK AO2 SLP143
T02060189


USA.gov is the U.S. government's official web portal to all federal, state and local government web resources and services.